Date,TemperatureHighF,TemperatureAvgF,TemperatureLowF,DewpointHighF,DewpointAvgF,DewpointLowF,HumidityHigh,HumidityAvg,HumidityLow,PressureMaxIn,PressureMinIn,WindSpeedMaxMPH,WindSpeedAvgMPH,GustSpeedMaxMPH,PrecipitationSumIn
2013-2-1,28.9,18.4,6.4,15.2,6.8,-1.3,72,61,51,30.48,30.18,0,0,0,0.00
2013-2-2,39.6,32.7,28.8,26.8,22.3,15.0,85,66,56,30.18,30.05,0,0,0,0.00
2013-2-3,38.3,30.7,26.4,27.7,21.0,16.5,87,68,47,30.24,29.96,0,0,0,0.00
2013-2-4,48.6,36.5,25.3,34.1,26.7,19.9,80,68,55,30.01,29.84,0,0,0,0.00
2013-2-5,53.1,36.1,25.2,37.2,27.9,19.9,86,73,53,30.16,29.92,0,0,0,0.00
2013-2-6,56.5,40.2,24.6,35.9,28.4,21.0,89,66,39,30.21,30.01,0,0,0,0.00
2013-2-7,48.0,42.2,35.2,45.0,36.0,28.8,89,79,57,30.13,29.89,0,0,0,0.00
2013-2-8,35.2,32.5,31.1,31.7,28.1,26.6,87,84,80,30.39,30.13,0,0,0,0.00
2013-2-9,45.3,36.6,31.1,33.1,29.7,26.5,85,76,60,30.34,29.96,0,0,0,0.00
2013-2-10,61.7,47.3,37.2,53.3,38.4,26.3,92,74,40,29.97,29.50,0,0,0,0.00
2013-2-11,49.6,40.0,29.5,31.3,26.6,22.2,74,59,47,30.17,29.82,0,0,0,0.00
2013-2-12,43.9,33.6,23.2,30.7,25.5,18.7,86,73,58,30.19,29.97,0,0,0,0.00
2013-2-13,51.3,38.9,29.3,33.9,29.2,24.1,83,69,49,29.97,29.83,0,0,0,0.00
2013-2-14,52.3,43.0,36.3,36.2,31.5,25.7,79,64,51,30.11,29.82,0,0,0,0.00
2013-2-15,39.6,31.6,22.8,25.7,17.6,11.9,74,57,40,30.33,30.11,0,0,0,0.00
2013-2-16,37.9,26.9,17.2,19.5,14.8,10.3,76,61,43,30.31,30.16,0,0,0,0.00
2013-2-17,52.9,39.7,28.2,30.5,23.7,18.8,69,54,36,30.16,29.83,0,0,0,0.00
2013-2-18,56.5,44.1,28.2,46.9,35.2,19.4,86,71,59,29.98,29.49,0,0,0,0.00
2013-2-19,31.3,25.5,20.8,19.8,14.1,9.8,72,62,49,30.34,29.98,0,0,0,0.00
2013-2-20,26.8,21.3,13.8,14.0,10.7,5.5,71,64,57,30.43,30.28,0,0,0,0.00
2013-2-21,28.9,24.6,21.9,26.4,19.4,12.2,90,81,66,30.31,29.81,0,0,0,0.00
2013-2-22,32.5,28.9,19.6,30.1,24.0,14.4,91,82,70,30.08,29.78,0,0,0,0.00
2013-2-23,35.6,23.0,12.7,22.6,15.6,8.8,86,74,58,30.07,30.00,0,0,0,0.00
2013-2-24,45.3,28.4,9.7,28.5,18.9,5.2,83,69,50,30.12,30.01,0,0,0,0.00
2013-2-25,44.4,33.0,19.6,31.7,25.6,14.9,90,75,57,30.06,29.69,0,0,0,0.00
2013-2-26,34.5,33.0,31.8,32.6,31.0,29.8,93,93,90,29.74,29.43,0,0,0,0.00
2013-2-27,38.5,32.6,28.6,33.1,28.8,24.6,92,86,74,29.95,29.73,0,0,0,0.00
2013-2-28,39.9,32.4,28.2,30.7,26.9,24.5,87,80,67,30.15,29.94,0,0,0,0.00